createdAt,value
2023-05-26T00:01:59.316Z,100700.81
2023-05-26T00:04:27.320Z,100697.69
2023-05-26T00:06:55.489Z,100701.56
2023-05-26T00:09:23.265Z,100700.94
2023-05-26T00:11:51.116Z,100692.97
2023-05-26T00:14:18.871Z,100685.06
2023-05-26T00:16:46.720Z,100647.94
2023-05-26T00:19:18.822Z,100688.34
2023-05-26T00:21:46.656Z,100691.69
2023-05-26T00:24:14.430Z,100692.53
2023-05-26T00:26:41.931Z,100692.69
2023-05-26T00:29:17.927Z,100651.94
2023-05-26T00:31:49.713Z,100669.00
2023-05-26T00:34:17.254Z,100693.84
2023-05-26T00:36:44.843Z,100702.75
2023-05-26T00:39:12.609Z,100702.31
2023-05-26T00:41:40.408Z,100695.81
2023-05-26T00:44:08.026Z,100694.44
2023-05-26T00:46:36.252Z,100700.78
2023-05-26T00:49:03.964Z,100699.31
2023-05-26T00:51:32.613Z,100697.78
2023-05-26T00:54:01.099Z,100697.59
2023-05-26T00:56:29.836Z,100701.28
2023-05-26T00:58:58.669Z,100656.84
2023-05-26T01:01:26.665Z,100696.66
2023-05-26T01:03:54.417Z,100651.38
2023-05-26T01:06:23.647Z,100690.50
2023-05-26T01:08:52.342Z,100691.16
2023-05-26T01:11:27.543Z,100655.72
2023-05-26T01:14:01.196Z,100696.62
2023-05-26T01:16:35.012Z,100702.13
2023-05-26T01:19:27.740Z,100695.47
2023-05-26T01:22:09.747Z,100688.53
2023-05-26T01:24:47.915Z,100693.84
2023-05-26T01:27:16.041Z,100688.53
2023-05-26T01:29:44.105Z,100692.50
2023-05-26T01:32:17.166Z,100698.50
2023-05-26T01:34:44.966Z,100696.22
2023-05-26T01:37:12.871Z,100684.31
2023-05-26T01:39:40.383Z,100686.62
2023-05-26T01:45:11.660Z,100686.62
2023-05-26T01:47:43.634Z,100680.66
2023-05-26T01:50:13.770Z,100688.94
2023-05-26T01:52:44.450Z,100688.44
2023-05-26T01:55:13.912Z,100685.97
2023-05-26T01:57:44.334Z,100684.31
2023-05-26T02:00:13.266Z,100683.31
2023-05-26T02:02:42.452Z,100681.50
2023-05-26T02:05:10.370Z,100681.50
2023-05-26T02:07:41.961Z,100684.81
2023-05-26T02:10:10.158Z,100684.66
2023-05-26T02:12:37.721Z,100644.06
2023-05-26T02:15:05.997Z,100686.81
2023-05-26T02:17:34.241Z,100686.97
2023-05-26T02:20:03.985Z,100690.94
2023-05-26T02:22:31.778Z,100692.75
2023-05-26T02:24:59.332Z,100687.63
2023-05-26T02:27:27.173Z,100643.91
2023-05-26T02:29:54.964Z,100688.63
2023-05-26T02:32:22.582Z,100688.00
2023-05-26T02:34:50.748Z,100688.47
2023-05-26T02:37:19.195Z,100673.41
2023-05-26T02:39:46.751Z,100678.91
2023-05-26T02:42:14.232Z,100691.66
2023-05-26T02:44:42.012Z,100696.31
2023-05-26T02:47:09.808Z,100687.03
2023-05-26T02:49:37.466Z,100692.31
2023-05-26T02:52:05.506Z,100689.50
2023-05-26T02:54:34.462Z,100702.94
2023-05-26T02:57:01.920Z,100654.72
2023-05-26T02:59:29.546Z,100682.72
2023-05-26T03:01:57.495Z,100691.69
2023-05-26T03:04:25.004Z,100705.75
2023-05-26T03:06:52.579Z,100713.06
2023-05-26T03:09:20.798Z,100716.72
2023-05-26T03:11:48.476Z,100706.25
2023-05-26T03:14:15.974Z,100668.75
2023-05-26T03:16:45.020Z,100656.00
2023-05-26T03:19:12.720Z,100713.19
2023-05-26T03:21:48.532Z,100710.00
2023-05-26T03:24:18.672Z,100704.38
2023-05-26T03:26:47.376Z,100709.19
2023-05-26T03:29:16.307Z,100708.19
2023-05-26T03:31:44.175Z,100708.19
2023-05-26T03:34:11.648Z,100704.06
2023-05-26T03:36:40.176Z,100710.00
2023-05-26T03:39:08.971Z,100715.97
2023-05-26T03:41:36.565Z,100707.03
2023-05-26T03:44:05.931Z,100707.53
2023-05-26T03:46:34.020Z,100703.09
2023-05-26T03:49:01.845Z,100711.19
2023-05-26T03:51:29.471Z,100704.91
2023-05-26T03:53:57.376Z,100713.50
2023-05-26T03:56:26.720Z,100718.81
2023-05-26T03:58:54.432Z,100664.63
2023-05-26T04:01:23.403Z,100714.87
2023-05-26T04:03:51.623Z,100716.19
2023-05-26T04:06:19.670Z,100722.66
2023-05-26T04:08:50.074Z,100721.00
2023-05-26T04:11:18.649Z,100706.91
2023-05-26T04:13:46.094Z,100715.72
2023-05-26T04:16:13.572Z,100714.22
2023-05-26T04:18:41.946Z,100721.84
2023-05-26T04:21:09.688Z,100717.19
2023-05-26T04:23:37.383Z,100719.16
2023-05-26T04:26:06.189Z,100716.19
2023-05-26T04:28:36.077Z,100715.53
2023-05-26T04:31:04.931Z,100721.47
2023-05-26T04:33:32.818Z,100720.31
2023-05-26T04:36:01.579Z,100714.03
2023-05-26T04:38:29.221Z,100675.88
2023-05-26T04:40:58.579Z,100724.47
2023-05-26T04:43:26.207Z,100732.56
2023-05-26T04:45:56.861Z,100728.06
2023-05-26T04:48:24.690Z,100688.66
2023-05-26T04:50:54.378Z,100723.59
2023-05-26T04:53:21.877Z,100733.72
2023-05-26T04:55:50.086Z,100734.53
2023-05-26T04:58:17.841Z,100744.34
2023-05-26T05:00:45.427Z,100741.00
2023-05-26T05:03:17.278Z,100741.31
2023-05-26T05:05:45.178Z,100749.13
2023-05-26T05:08:12.825Z,100739.31
2023-05-26T05:10:40.615Z,100747.62
2023-05-26T05:13:09.481Z,100736.84
2023-05-26T05:15:37.043Z,100740.94
2023-05-26T05:18:05.088Z,100738.66
2023-05-26T05:20:32.808Z,100741.09
2023-05-26T05:23:00.735Z,100708.06
2023-05-26T05:25:28.808Z,100746.97
2023-05-26T05:27:56.460Z,100746.66
2023-05-26T05:30:24.040Z,100739.53
2023-05-26T05:32:52.010Z,100738.78
2023-05-26T05:35:19.662Z,100707.78
2023-05-26T05:37:50.741Z,100755.19
2023-05-26T05:40:18.632Z,100749.34
2023-05-26T05:42:46.168Z,100689.72
2023-05-26T05:45:13.723Z,100739.13
2023-05-26T05:47:44.071Z,100739.78
2023-05-26T05:50:12.008Z,100740.44
2023-05-26T05:52:39.491Z,100695.22
2023-05-26T05:55:07.744Z,100730.38
2023-05-26T05:57:35.371Z,100729.03
2023-05-26T06:00:05.046Z,100732.06
2023-05-26T06:02:41.303Z,100733.53
2023-05-26T06:05:09.726Z,100740.06
2023-05-26T06:07:38.037Z,100737.06
2023-05-26T06:10:07.761Z,100740.31
2023-05-26T06:12:35.602Z,100740.41
2023-05-26T06:15:03.605Z,100737.94
2023-05-26T06:17:31.215Z,100747.72
2023-05-26T06:19:59.159Z,100750.84
2023-05-26T06:22:26.795Z,100755.75
2023-05-26T06:24:54.492Z,100758.69
2023-05-26T06:27:22.595Z,100757.34
2023-05-26T06:29:50.087Z,100746.84
2023-05-26T06:32:18.107Z,100751.78
2023-05-26T06:34:46.086Z,100762.22
2023-05-26T06:37:13.838Z,100760.19
2023-05-26T06:39:41.399Z,100761.59
2023-05-26T06:42:10.349Z,100768.63
2023-05-26T06:44:38.316Z,100761.59
2023-05-26T06:47:06.045Z,100776.50
2023-05-26T06:49:34.127Z,100750.13
2023-05-26T06:52:02.143Z,100764.31
2023-05-26T06:54:29.634Z,100766.41
2023-05-26T06:56:57.442Z,100775.13
2023-05-26T06:59:26.091Z,100779.84
2023-05-26T07:01:53.711Z,100769.16
2023-05-26T07:04:22.015Z,100736.22
2023-05-26T07:06:49.562Z,100770.75
2023-05-26T07:09:18.394Z,100774.12
2023-05-26T07:11:47.622Z,100768.41
2023-05-26T07:14:20.265Z,100760.00
2023-05-26T07:16:48.235Z,100761.25
2023-05-26T07:19:15.984Z,100764.34
2023-05-26T07:21:43.604Z,100769.69
2023-05-26T07:24:11.441Z,100769.59
2023-05-26T07:26:39.415Z,100771.81
2023-05-26T07:29:06.936Z,100764.72
2023-05-26T07:31:35.179Z,100727.34
2023-05-26T07:34:02.873Z,100769.00
2023-05-26T07:36:31.083Z,100772.66
2023-05-26T07:38:58.930Z,100762.63
2023-05-26T07:41:26.680Z,100768.97
2023-05-26T07:43:54.157Z,100770.28
2023-05-26T07:46:22.035Z,100767.12
2023-05-26T07:48:49.883Z,100769.16
2023-05-26T07:51:17.668Z,100774.31
2023-05-26T07:53:45.939Z,100778.00
2023-05-26T07:56:13.443Z,100774.91
2023-05-26T07:58:41.296Z,100765.13
2023-05-26T08:01:09.611Z,100762.00
2023-05-26T08:03:37.540Z,100772.37
2023-05-26T08:06:17.529Z,100779.34
2023-05-26T08:08:52.995Z,100773.00
2023-05-26T08:11:22.914Z,100783.94
2023-05-26T08:13:50.439Z,100776.66
2023-05-26T08:16:18.446Z,100774.44
2023-05-26T08:18:45.961Z,100778.94
2023-05-26T08:21:13.476Z,100770.31
2023-05-26T08:23:42.696Z,100772.34
2023-05-26T08:26:10.466Z,100771.09
2023-05-26T08:28:37.948Z,100769.09
2023-05-26T08:31:06.848Z,100770.03
2023-05-26T08:33:34.410Z,100774.78
2023-05-26T08:36:02.092Z,100772.03
2023-05-26T08:38:32.998Z,100773.53
2023-05-26T08:41:02.271Z,100769.84
2023-05-26T08:43:51.376Z,100776.00
2023-05-26T08:46:24.203Z,100776.63
2023-05-26T08:48:54.274Z,100769.94
2023-05-26T08:51:21.769Z,100774.66
2023-05-26T08:53:50.235Z,100780.69
2023-05-26T08:56:18.454Z,100774.72
2023-05-26T08:58:46.572Z,100777.78
2023-05-26T09:01:14.156Z,100779.28
2023-05-26T09:03:42.163Z,100778.00
2023-05-26T09:06:09.826Z,100771.59
2023-05-26T09:08:37.483Z,100776.81
2023-05-26T09:11:20.840Z,100770.75
2023-05-26T09:13:56.901Z,100769.13
2023-05-26T09:16:27.207Z,100763.72
2023-05-26T09:18:58.908Z,100725.22
2023-05-26T09:21:28.097Z,100768.03
2023-05-26T09:23:57.267Z,100777.97
2023-05-26T09:26:28.396Z,100756.38
2023-05-26T09:28:56.355Z,100761.72
2023-05-26T09:31:24.470Z,100760.34
2023-05-26T09:33:53.610Z,100756.09
2023-05-26T09:36:24.439Z,100764.47
2023-05-26T09:38:53.380Z,100761.84
2023-05-26T09:41:21.847Z,100762.94
2023-05-26T09:43:51.985Z,100749.06
2023-05-26T09:46:23.440Z,100759.78
2023-05-26T09:48:52.409Z,100756.28
2023-05-26T09:51:27.606Z,100758.34
2023-05-26T09:54:18.812Z,100764.44
2023-05-26T09:56:54.712Z,100758.97
2023-05-26T09:59:23.036Z,100751.31
2023-05-26T10:01:53.313Z,100724.87
2023-05-26T10:04:21.729Z,100759.31
2023-05-26T10:06:52.542Z,100749.37
2023-05-26T10:09:23.937Z,100753.72
2023-05-26T10:11:54.199Z,100753.00
2023-05-26T10:14:22.077Z,100746.69
2023-05-26T10:16:50.762Z,100752.94
2023-05-26T10:19:19.249Z,100737.50
2023-05-26T10:21:53.825Z,100740.31
2023-05-26T10:24:55.305Z,100741.25
2023-05-26T10:27:29.776Z,100733.31
2023-05-26T10:30:14.228Z,100721.03
2023-05-26T10:32:56.824Z,100731.87
2023-05-26T10:35:34.602Z,100728.25
2023-05-26T10:38:02.069Z,100731.69
2023-05-26T10:40:34.989Z,100725.19
2023-05-26T10:43:21.545Z,100691.72
2023-05-26T10:45:54.076Z,100727.47
2023-05-26T10:48:22.870Z,100721.84
2023-05-26T10:50:56.787Z,100717.75
2023-05-26T10:53:24.964Z,100719.28
2023-05-26T10:55:58.046Z,100702.03
2023-05-26T10:58:38.770Z,100702.66
2023-05-26T11:01:29.865Z,100670.97
2023-05-26T11:04:09.723Z,100701.00
2023-05-26T11:06:55.532Z,100699.97
2023-05-26T11:09:24.603Z,100706.00
2023-05-26T11:11:56.457Z,100696.88
2023-05-26T11:14:29.760Z,100686.72
2023-05-26T11:17:03.155Z,100665.66
2023-05-26T11:19:39.057Z,100684.31
2023-05-26T11:22:09.356Z,100687.56
2023-05-26T11:24:37.736Z,100667.87
2023-05-26T11:27:06.873Z,100673.03
2023-05-26T11:29:35.030Z,100677.53
2023-05-26T11:32:03.019Z,100675.13
2023-05-26T11:34:30.891Z,100673.47
2023-05-26T11:36:59.762Z,100671.81
2023-05-26T11:39:33.111Z,100638.56
2023-05-26T11:42:08.937Z,100661.81
2023-05-26T11:44:36.867Z,100629.31
2023-05-26T11:47:06.642Z,100657.13
2023-05-26T11:49:34.187Z,100658.09
2023-05-26T11:52:01.727Z,100661.28
2023-05-26T11:54:29.790Z,100613.31
2023-05-26T11:56:57.328Z,100651.63
2023-05-26T11:59:25.005Z,100641.44
2023-05-26T12:01:52.950Z,100638.44
2023-05-26T12:04:29.034Z,100632.50
2023-05-26T12:06:58.536Z,100632.84
2023-05-26T12:09:29.460Z,100629.03
2023-05-26T12:11:58.652Z,100594.97
2023-05-26T12:14:27.918Z,100612.44
2023-05-26T12:16:57.466Z,100626.75
2023-05-26T12:19:26.420Z,100614.31
2023-05-26T12:21:57.787Z,100618.31
2023-05-26T12:24:40.375Z,100608.06
2023-05-26T12:27:13.101Z,100610.25
2023-05-26T12:29:42.895Z,100607.75
2023-05-26T12:32:14.539Z,100603.25
2023-05-26T12:34:43.292Z,100599.81
2023-05-26T12:37:11.253Z,100610.34
2023-05-26T12:39:49.908Z,100584.62
2023-05-26T12:42:18.116Z,100597.09
2023-05-26T12:44:59.337Z,100598.19
2023-05-26T12:47:31.898Z,100595.78
2023-05-26T12:49:59.692Z,100584.56
2023-05-26T12:52:27.473Z,100583.88
2023-05-26T12:54:55.868Z,100584.19
2023-05-26T12:57:25.131Z,100546.25
2023-05-26T12:59:53.018Z,100575.25
2023-05-26T13:02:20.815Z,100574.25
2023-05-26T13:04:48.411Z,100570.41
2023-05-26T13:07:16.226Z,100568.53
2023-05-26T13:09:44.793Z,100564.62
2023-05-26T13:12:13.864Z,100570.34
2023-05-26T13:14:41.732Z,100556.75
2023-05-26T13:17:09.259Z,100554.94
2023-05-26T13:19:36.727Z,100548.47
2023-05-26T13:22:05.286Z,100548.91
2023-05-26T13:24:32.880Z,100539.31
2023-05-26T13:27:00.482Z,100532.25
2023-05-26T13:29:28.260Z,100533.16
2023-05-26T13:31:56.711Z,100531.84
2023-05-26T13:34:24.255Z,100490.69
2023-05-26T13:36:52.044Z,100525.75
2023-05-26T13:39:19.912Z,100528.16
2023-05-26T13:41:47.612Z,100526.84
2023-05-26T13:44:15.603Z,100489.44
2023-05-26T13:46:43.225Z,100522.31
2023-05-26T13:49:10.788Z,100518.50
2023-05-26T13:51:38.585Z,100519.16
2023-05-26T13:54:06.320Z,100492.62
2023-05-26T13:56:33.952Z,100521.87
2023-05-26T13:59:02.129Z,100519.50
2023-05-26T14:01:37.819Z,100518.50
2023-05-26T14:04:09.199Z,100515.34
2023-05-26T14:06:38.376Z,100509.53
2023-05-26T14:09:09.958Z,100513.03
2023-05-26T14:11:40.354Z,100509.16
2023-05-26T14:14:08.794Z,100517.78
2023-05-26T14:16:36.764Z,100514.41
2023-05-26T14:19:07.265Z,100503.94
2023-05-26T14:22:07.218Z,100514.91
2023-05-26T14:24:33.149Z,100506.41
2023-05-26T14:27:01.598Z,100502.28
2023-05-26T14:29:29.249Z,100470.66
2023-05-26T14:31:56.849Z,100496.28
2023-05-26T14:34:24.879Z,100490.84
2023-05-26T14:36:52.411Z,100494.59
2023-05-26T14:39:20.691Z,100500.50
2023-05-26T14:41:48.535Z,100496.53
2023-05-26T14:44:16.222Z,100487.41
2023-05-26T14:46:44.344Z,100494.37
2023-05-26T14:49:12.318Z,100494.09
2023-05-26T14:51:39.996Z,100497.47
2023-05-26T14:54:08.353Z,100490.19
2023-05-26T14:56:36.476Z,100488.91
2023-05-26T14:59:04.169Z,100494.53
2023-05-26T15:01:32.026Z,100460.16
2023-05-26T15:04:14.466Z,100487.09
2023-05-26T15:06:43.807Z,100476.72
2023-05-26T15:09:11.908Z,100495.19
2023-05-26T15:11:39.538Z,100483.56
2023-05-26T15:14:08.439Z,100484.78
2023-05-26T15:16:37.666Z,100486.44
2023-05-26T15:19:05.841Z,100478.25
2023-05-26T15:21:38.592Z,100482.69
2023-05-26T15:24:08.589Z,100488.59
2023-05-26T15:26:36.569Z,100489.91
2023-05-26T15:29:04.276Z,100482.66
2023-05-26T15:31:32.372Z,100457.28
2023-05-26T15:33:59.902Z,100489.66
2023-05-26T15:36:27.476Z,100448.06
2023-05-26T15:38:55.552Z,100476.03
2023-05-26T15:41:25.469Z,100483.44
2023-05-26T15:43:55.280Z,100484.97
2023-05-26T15:46:22.885Z,100477.09
2023-05-26T15:48:50.571Z,100482.00
2023-05-26T15:51:18.355Z,100490.22
2023-05-26T15:53:46.055Z,100479.12
2023-05-26T15:56:13.548Z,100484.59
2023-05-26T15:58:41.503Z,100473.12
2023-05-26T16:01:09.148Z,100475.72
2023-05-26T16:03:37.171Z,100476.06
2023-05-26T16:06:05.128Z,100479.12
2023-05-26T16:08:32.723Z,100474.31
2023-05-26T16:11:03.150Z,100446.53
2023-05-26T16:13:31.109Z,100482.16
2023-05-26T16:16:00.583Z,100484.03
2023-05-26T16:18:28.504Z,100477.09
2023-05-26T16:20:56.145Z,100478.16
2023-05-26T16:23:24.165Z,100478.53
2023-05-26T16:25:53.741Z,100484.16
2023-05-26T16:28:23.953Z,100482.31
2023-05-26T16:30:57.244Z,100483.69
2023-05-26T16:33:25.037Z,100483.47
2023-05-26T16:35:54.315Z,100485.19
2023-05-26T16:38:23.816Z,100496.22
2023-05-26T16:40:51.419Z,100501.34
2023-05-26T16:43:32.049Z,100498.78
2023-05-26T16:46:06.914Z,100497.63
2023-05-26T16:48:34.768Z,100491.37
2023-05-26T16:51:02.512Z,100466.97
2023-05-26T16:53:30.330Z,100504.03
2023-05-26T16:55:58.345Z,100511.28
2023-05-26T16:58:26.058Z,100513.53
2023-05-26T17:00:53.637Z,100516.22
2023-05-26T17:03:21.721Z,100516.78
2023-05-26T17:05:49.274Z,100516.78
2023-05-26T17:08:16.863Z,100522.19
2023-05-26T17:10:46.051Z,100525.78
2023-05-26T17:13:13.600Z,100484.28
2023-05-26T17:15:41.241Z,100522.97
2023-05-26T17:18:09.164Z,100527.38
2023-05-26T17:20:36.760Z,100527.47
2023-05-26T17:23:04.562Z,100532.16
2023-05-26T17:25:32.247Z,100533.28
2023-05-26T17:27:59.893Z,100537.72
2023-05-26T17:30:27.560Z,100536.03
2023-05-26T17:32:56.927Z,100522.84
2023-05-26T17:35:26.499Z,100542.84
2023-05-26T17:37:54.078Z,100541.75
2023-05-26T17:40:21.959Z,100517.94
2023-05-26T17:42:49.859Z,100556.28
2023-05-26T17:46:36.836Z,100563.22
2023-05-26T17:49:05.171Z,100557.38
2023-05-26T17:51:33.571Z,100561.63
2023-05-26T17:54:01.220Z,100558.81
2023-05-26T17:56:36.910Z,100563.88
2023-05-26T17:59:05.088Z,100561.28
2023-05-26T18:01:32.928Z,100566.91
2023-05-26T18:04:00.948Z,100565.78
2023-05-26T18:06:49.209Z,100573.66
2023-05-26T18:09:17.342Z,100574.28
2023-05-26T18:11:45.338Z,100570.84
2023-05-26T18:14:16.069Z,100563.44
2023-05-26T18:16:46.519Z,100575.66
2023-05-26T18:19:14.980Z,100573.59
2023-05-26T18:21:42.530Z,100578.16
2023-05-26T18:24:15.693Z,100584.12
2023-05-26T18:26:47.663Z,100539.72
2023-05-26T18:29:15.726Z,100549.22
2023-05-26T18:31:44.284Z,100579.69
2023-05-26T18:34:24.739Z,100584.88
2023-05-26T18:36:53.480Z,100585.50
2023-05-26T18:39:21.134Z,100585.09
2023-05-26T18:41:48.651Z,100587.38
2023-05-26T18:44:16.545Z,100586.97
2023-05-26T18:46:44.182Z,100594.84
2023-05-26T18:49:12.106Z,100600.00
2023-05-26T18:51:40.049Z,100594.44
2023-05-26T18:54:07.978Z,100606.00
2023-05-26T18:56:35.620Z,100610.75
2023-05-26T18:59:03.601Z,100635.06
2023-05-26T19:01:31.209Z,100650.75
2023-05-26T19:04:02.059Z,100670.28
2023-05-26T19:06:30.051Z,100669.69
2023-05-26T19:08:57.546Z,100668.56
2023-05-26T19:11:25.002Z,100666.34
2023-05-26T19:13:53.547Z,100668.59
2023-05-26T19:16:21.468Z,100665.97
2023-05-26T19:18:49.127Z,100630.78
2023-05-26T19:21:16.846Z,100671.03
2023-05-26T19:23:44.404Z,100671.84
2023-05-26T19:26:11.925Z,100665.75
2023-05-26T19:28:49.499Z,100668.00
2023-05-26T19:31:18.161Z,100625.03
2023-05-26T19:33:45.990Z,100667.28
2023-05-26T19:36:13.514Z,100666.38
2023-05-26T19:38:40.979Z,100675.56
2023-05-26T19:41:08.936Z,100676.50
2023-05-26T19:43:36.572Z,100671.63
2023-05-26T19:46:05.033Z,100681.94
2023-05-26T19:48:33.636Z,100679.06
2023-05-26T19:51:01.508Z,100688.88
2023-05-26T19:53:29.151Z,100685.34
2023-05-26T19:55:57.232Z,100699.78
2023-05-26T19:58:24.980Z,100692.91
2023-05-26T20:00:52.886Z,100653.56
2023-05-26T20:03:21.920Z,100704.25
2023-05-26T20:05:52.912Z,100707.00
2023-05-26T20:08:21.175Z,100709.13
2023-05-26T20:10:49.449Z,100709.81
2023-05-26T20:13:17.430Z,100665.25
2023-05-26T20:15:45.669Z,100708.22
2023-05-26T20:18:13.268Z,100662.75
2023-05-26T20:20:40.843Z,100701.22
2023-05-26T20:23:08.662Z,100701.41
2023-05-26T20:25:36.398Z,100697.94
2023-05-26T20:28:03.961Z,100704.28
2023-05-26T20:30:33.082Z,100709.81
2023-05-26T20:33:00.789Z,100708.97
2023-05-26T20:35:28.388Z,100717.12
2023-05-26T20:37:56.176Z,100713.47
2023-05-26T20:40:26.002Z,100712.13
2023-05-26T20:42:54.295Z,100710.16
2023-05-26T20:45:22.091Z,100704.34
2023-05-26T20:47:49.726Z,100702.78
2023-05-26T20:50:17.665Z,100699.00
2023-05-26T20:52:46.400Z,100704.56
2023-05-26T20:55:13.982Z,100702.53
2023-05-26T20:57:42.127Z,100698.88
2023-05-26T21:00:10.131Z,100692.44
2023-05-26T21:02:37.930Z,100692.44
2023-05-26T21:05:05.845Z,100688.47
2023-05-26T21:07:33.685Z,100689.47
2023-05-26T21:10:02.838Z,100694.06
2023-05-26T21:12:30.372Z,100694.06
2023-05-26T21:14:59.057Z,100691.78
2023-05-26T21:17:26.700Z,100692.69
2023-05-26T21:19:54.390Z,100685.72
2023-05-26T21:22:22.171Z,100690.22
2023-05-26T21:24:49.673Z,100647.09
2023-05-26T21:27:17.192Z,100694.41
2023-05-26T21:29:45.358Z,100691.66
2023-05-26T21:32:13.678Z,100688.22
2023-05-26T21:34:41.309Z,100696.78
2023-05-26T21:37:09.082Z,100698.13
2023-05-26T21:39:38.179Z,100698.31
2023-05-26T21:42:06.431Z,100704.87
2023-05-26T21:44:34.355Z,100692.72
2023-05-26T21:47:01.862Z,100696.50
2023-05-26T21:49:29.344Z,100701.00
2023-05-26T21:51:57.186Z,100695.56
2023-05-26T21:54:24.743Z,100691.44
2023-05-26T21:56:52.276Z,100647.75
2023-05-26T21:59:20.057Z,100682.78
2023-05-26T22:01:48.317Z,100646.63
2023-05-26T22:04:16.400Z,100680.91
2023-05-26T22:06:43.947Z,100640.56
2023-05-26T22:09:12.174Z,100692.59
2023-05-26T22:11:40.071Z,100689.47
2023-05-26T22:14:21.275Z,100690.31
2023-05-26T22:16:53.580Z,100690.31
2023-05-26T22:19:21.157Z,100697.31
2023-05-26T22:21:48.641Z,100669.00
2023-05-26T22:24:16.380Z,100710.28
2023-05-26T22:26:44.071Z,100709.66
2023-05-26T22:29:12.033Z,100702.81
2023-05-26T22:31:40.063Z,100708.13
2023-05-26T22:34:07.646Z,100700.34
2023-05-26T22:36:35.231Z,100700.34
2023-05-26T22:39:06.241Z,100701.03
2023-05-26T22:41:34.053Z,100699.88
2023-05-26T22:44:01.581Z,100702.56
2023-05-26T22:46:29.545Z,100704.44
2023-05-26T22:48:57.128Z,100703.78
2023-05-26T22:51:24.762Z,100699.13
2023-05-26T22:53:52.559Z,100697.09
2023-05-26T22:56:20.651Z,100657.69
2023-05-26T22:58:48.466Z,100697.09
2023-05-26T23:01:16.322Z,100695.97
2023-05-26T23:03:43.936Z,100698.63
2023-05-26T23:06:11.580Z,100702.25
2023-05-26T23:08:40.757Z,100699.41
2023-05-26T23:11:10.262Z,100692.97
2023-05-26T23:13:38.448Z,100706.59
2023-05-26T23:16:06.825Z,100698.31
2023-05-26T23:18:35.071Z,100699.16
2023-05-26T23:21:03.117Z,100663.72
2023-05-26T23:23:31.030Z,100641.00
2023-05-26T23:25:58.710Z,100695.47
2023-05-26T23:28:26.414Z,100708.75
2023-05-26T23:30:54.270Z,100700.00
2023-05-26T23:33:22.060Z,100704.78
2023-05-26T23:35:50.233Z,100702.94
2023-05-26T23:38:18.322Z,100705.91
2023-05-26T23:40:45.832Z,100706.78
2023-05-26T23:43:13.320Z,100698.63
2023-05-26T23:45:41.116Z,100656.53
2023-05-26T23:48:08.672Z,100708.56
2023-05-26T23:50:36.877Z,100706.78
2023-05-26T23:53:04.848Z,100712.09
2023-05-26T23:55:32.423Z,100710.09
2023-05-26T23:57:59.977Z,100715.41
